SBGL

RIOgaleão – Tom Jobim International Airport

Rio De Janeiro, Brazil
METAR SBGL 212200Z 15008KT CAVOK 24/19 Q1016
Observed Flight Rules
Apr-21 @ 22:00 UTC (55 minutes ago) Visual Flight Rules
Wind Visibility Clouds
150° at 8 knots 10,000+ meters
  • Clear skies
Temperatures Readings
Current 24°C / 75°F
Dewpoint 19°C / 66°F
Humidity 74%
Altimeter 30" Hg
Pressure 1016 hPa
Elevation 6
METAR SBGL 212200Z 15008KT CAVOK 24/19 Q1016
Observed Flight Rules
Apr-21 @ 22:00 UTC
(55 minutes ago)
VFR
Wind Visibility
150° at 8 knots 10,000+ meters
Clouds
  • Clear skies
Temperature Dewpoint
24°C / 75°F 19°C / 66°F
Humidity Altimeter Pressure
74% 30" Hg 1016 hPa